Aérodrome :
LOGIN :

S'inscrire | Disclaimer

   EN    FR    IT 

 










Légende :    VFR   VFR Marginal   IFR   IFR Intensif   IFR Très Intensif
Visi : 
Plafond : 
>= 8 km
>= 3000ft
5 à 8 km
1000 à 3000 ft
1500m à 5 km
500 à 1000 ft
800 à 1500m
200 à 500 ft
< 800m
< 200 ft
Symboles :   Orages  Brouillard  Fortes neiges  Fortes précipitations  Vent > 20 kt
SIGMETs :   Divers  Orages  Givrage  Turbulence  Onde Orograph.  Cendres Volcan.






- Altitude de l'aérodrome : 286 ft
- Code IATA : TRF


ENTO - Sandefjord , Torp

DERNIER METAR :
  • 270620Z 18016KT 3000 DZ BR OVC003 05/05 Q1000 TEMPO 2000 DZ BR

METARs EXPIRÉS :
  • 270550Z 18015KT 3000 -RA BR OVC004 05/05 Q1001 NOSIG
  • 270520Z 18017KT 3500 -RA BR OVC004 05/05 Q1001 NOSIG
  • 270450Z 19017KT 3500 BR OVC004 05/05 Q1001
  • 270420Z AUTO 19017KT 3000 BR OVC003/// 05/05 Q1001
  • 270350Z AUTO 19017KT 3200 BR OVC003/// 05/05 Q1001

TAF TAF ENTO
Valide du 27 à 06h jusqu'au 28 à 06h UTC


2706/2806 19015KT 9000 SCT003 BKN008
TEMPO 2706/2714 20018G28KT 2000 RADZ BR OVC002
BECMG 2718/2720 25008KT
TEMPO 2718/2722 SHRA SCT008 BKN020CB
BECMG 2803/2805 01010KT



MET'MAP, la Météo Aéronautique d'un coup d'oeil ! - Copyright ORBIFLY Décembre 2007 - Disclaimer

ORBIFLY MET'MAP TEAM :

Programmation & Développement : Alexandra Zaïnal
Sur une idée originale de : Baudouin d'Aumeries
Assistance à la programmation : Marc-Olivier Méhu
Soutien technique & logistique : Manuel Goepfert

Contact : metmap@orbifly.com




SOURCES & CREDITS :

   NOAA